Flight Track Log - Related Links

Times and Time Zones

All times are in EDT time to prevent confusion due to time zone crossing. See the N40007 flight status page for this flight to view local times or setup timezone preferences in your user account.

Time Position Orientation Groundspeed Altitude Reporting Facility
EDT Latitude Longitude Course Direction KTS MPH feet Rate Location/Type
Fri 04:55:03 PM 40.8500 -74.3167 North 96 110 1,400  Level New York TRACON
Fri 04:56:03 PM 40.8667 -74.3500 303° West 105 121 1,700 365 Climbing New York TRACON
Fri 04:56:58 PM 40.8833 -74.3333 37° Northeast 106 122 2,100 467 Climbing New York TRACON
Fri 04:58:00 PM 40.9041 -74.3056 45° Northeast  Level FlightAware Approximate
Fri 04:59:03 PM 40.9500 -74.3333 45° Northeast 100 115 3,100  Level New York TRACON
Fri 05:00:00 PM 40.8762 -74.2813 North  Level Estimated
Fri 05:00:03 PM 40.9667 -74.3500 323° Northwest 97 112 3,500  Level New York TRACON
Fri 05:00:58 PM 41.0000 -74.3500 360° North 118 136 3,500 34 Level New York TRACON
Fri 05:02:58 PM 41.0667 -74.3500 360° North 122 140 3,600 33 Climbing New York TRACON
Fri 05:03:58 PM 41.1000 -74.3500 360° North 122 140 3,600  Level New York TRACON
Fri 05:04:58 PM 41.1333 -74.3667 339° North 124 143 3,600  Level New York TRACON
Fri 05:05:58 PM 41.1667 -74.3667 360° North 132 152 3,600  Level New York TRACON
Fri 05:06:58 PM 41.2000 -74.3667 360° North 128 147 3,600 50 Level New York TRACON
Fri 05:07:58 PM 41.2333 -74.3667 360° North 122 140 3,700  Climbing New York TRACON
Fri 05:08:58 PM 41.2667 -74.3667 360° North 119 137 3,600 -48 Descending New York TRACON
Fri 05:10:03 PM 41.3000 -74.3667 360° North 117 135 3,600 48 Level New York TRACON
Fri 05:11:03 PM 41.3500 -74.3667 360° North 126 145 3,700  Climbing New York TRACON
Fri 05:12:03 PM 41.3833 -74.3500 21° North 131 151 3,600 -50 Descending New York TRACON
Fri 05:13:03 PM 41.4167 -74.3500 360° North 123 142 3,600  Level New York TRACON
Fri 05:13:58 PM 41.4333 -74.3500 360° North 123 142 3,600  Level New York TRACON
Fri 05:14:58 PM 41.4667 -74.3500 360° North 121 139 3,600  Level New York TRACON
Fri 05:15:58 PM 41.5000 -74.3333 21° North 115 132 3,600  Level New York TRACON
Fri 05:16:58 PM 41.5333 -74.3333 360° North 119 137 3,600  Level New York TRACON
Fri 05:17:58 PM 41.5667 -74.3333 360° North 114 131 3,600  Level New York TRACON
Fri 05:18:58 PM 41.6000 -74.3333 360° North 113 130 3,600  Level New York TRACON
Fri 05:19:58 PM 41.6333 -74.3333 360° North 118 136 3,600  Level New York TRACON
Fri 05:20:58 PM 41.6667 -74.3167 20° North 127 146 3,600  Level New York TRACON
Fri 05:22:04 PM 41.7167 -74.3167 360° North 125 144 3,600 200 Level New York TRACON
Fri 05:22:58 PM 41.7333 -74.3167 360° North 108 124 4,000 368 Climbing New York TRACON
Fri 05:23:58 PM 41.7667 -74.3167 360° North 101 116 4,300 400 Climbing New York TRACON
Fri 05:24:58 PM 41.7833 -74.3167 360° North 98 113 4,800 524 Climbing New York TRACON
Fri 05:26:04 PM 41.8167 -74.3167 360° North 90 104 5,400 333 Climbing New York TRACON
Fri 05:27:04 PM 41.8500 -74.3167 360° North 106 122 5,500 105 Climbing New York TRACON
Fri 05:27:58 PM 41.8667 -74.3167 360° North 114 131 5,600 53 Climbing New York TRACON
Fri 05:28:58 PM 41.9000 -74.3000 20° North 111 128 5,600 95 Level New York TRACON
Fri 05:30:04 PM 41.9333 -74.3000 360° North 115 132 5,800 59 Climbing New York TRACON
Fri 05:30:40 PM 41.9536 -74.3019 356° North 116 133 5,700  Descending Boston Center
Fri 05:31:53 PM 41.9953 -74.3006 North 123 142 5,800 45 Climbing Boston Center
Fri 05:32:54 PM 42.0289 -74.2986 North 119 137 5,800  Level Boston Center
Fri 05:34:00 PM 42.0706 -74.3000 359° North 121 139 5,800 47 Level Boston Center
Fri 05:35:01 PM 42.1058 -74.3011 359° North 128 147 5,900 49 Climbing Boston Center
Fri 05:36:02 PM 42.1456 -74.2967 North 129 148 5,900  Level Boston Center
Fri 05:37:08 PM 42.1831 -74.2978 359° North 127 146 5,900 -47 Level Boston Center
Fri 05:38:09 PM 42.2186 -74.2931 North 125 144 5,800 -98 Descending Boston Center
Fri 05:39:10 PM 42.2561 -74.2831 11° North 137 158 5,700 -149 Descending Boston Center
Fri 05:40:10 PM 42.2939 -74.2786 North 138 159 5,500 -175 Descending Boston Center
Fri 05:40:53 PM 42.3189 -74.2764 North 131 151 5,400  Descending Boston Center
Fri 05:41:54 PM 42.3564 -74.2747 North 131 151 5,500 49 Climbing Boston Center
Fri 05:42:55 PM 42.3919 -74.2644 12° North 133 153 5,500 -47 Level Boston Center
Fri 05:44:02 PM 42.4317 -74.2600 North 132 152 5,400 -47 Descending Boston Center
Fri 05:45:02 PM 42.4692 -74.2583 North 126 145 5,400  Level Boston Center
Fri 05:46:03 PM 42.5067 -74.2539 North 129 148 5,400  Level Boston Center
Fri 05:47:10 PM 42.5464 -74.2467 North 133 153 5,400  Level Boston Center
Fri 05:48:05 PM 42.5800 -74.2447 North 132 152 5,400  Level Boston Center
Fri 05:49:00 PM 42.6133 -74.2400 North 129 148 5,400  Level Boston Center
Fri 05:50:00 PM 42.6508 -74.2325 North 131 151 5,400  Level Boston Center
Fri 05:51:01 PM 42.6864 -74.2308 North 127 146 5,400  Level Boston Center
Fri 05:52:02 PM 42.7219 -74.2261 North 129 148 5,400  Level Boston Center
Fri 05:53:03 PM 42.7617 -74.2189 North 134 154 5,400  Level Boston Center
Fri 05:54:04 PM 42.7972 -74.2114 North 136 157 5,400  Level Boston Center
Fri 05:55:04 PM 42.8347 -74.2069 North 134 154 5,400  Level Boston Center
Fri 05:56:05 PM 42.8703 -74.2022 North 128 147 5,400  Level Boston Center
Fri 05:57:00 PM 42.9058 -74.1975 North 133 153 5,400 45 Level Boston Center
Fri 05:58:19 PM 42.9517 -74.1961 North 125 144 5,500 41 Climbing Boston Center
Fri 05:59:26 PM 42.9892 -74.1914 North 119 137 5,500 55 Level Boston Center
Fri 06:00:08 PM 43.0122 -74.1836 14° North 129 148 5,600 100 Climbing Boston Center
Fri 06:00:26 PM 43.0247 -74.1867 350° North 126 145 5,600 100 Level Boston Center
Fri 06:01:08 PM 43.0478 -74.1844 North 129 148 5,700  Climbing Boston Center
Fri 06:01:27 PM 43.0603 -74.1822 North 127 146 5,600 -100 Descending Boston Center
Fri 06:02:08 PM 43.0811 -74.1742 16° North 134 154 5,600  Level Boston Center
Fri 06:02:28 PM 43.0958 -74.1775 351° North 128 147 5,600  Level Boston Center
Fri 06:03:08 PM 43.1106 -74.1692 22° Northeast 133 153 5,600 -60 Level Boston Center
Fri 06:04:08 PM 43.1522 -74.1619 North 128 147 5,500  Descending Boston Center
Fri 06:05:08 PM 43.1878 -74.1544 North 128 147 5,600 50 Climbing Boston Center
Fri 06:06:08 PM 43.2233 -74.1497 North 128 147 5,600 91 Level Boston Center
Fri 06:07:20 PM 43.2483 -74.1447 North 123 142 5,800 136 Climbing Boston Center
Fri 06:08:20 PM 43.3006 -74.1347 North 130 150 5,900 100 Climbing Boston Center
Fri 06:09:20 PM 43.3300 -74.1297 North 125 144 6,000 50 Climbing Boston Center
Fri 06:10:20 PM 43.3675 -74.1194 11° North 125 144 6,000  Level Boston Center
Fri 06:11:32 PM 43.4031 -74.1147 North 125 144 6,000  Level Boston Center
Fri 06:12:32 PM 43.4469 -74.1103 North 125 144 6,000 50 Level Boston Center
Fri 06:13:32 PM 43.4803 -74.1025 10° North 125 144 6,100 100 Climbing Boston Center
Fri 06:14:32 PM 43.5158 -74.0978 North 125 144 6,200 50 Climbing Boston Center
Fri 06:15:32 PM 43.5533 -74.0931 North 125 144 6,200 -50 Level Boston Center
Fri 06:16:32 PM 43.5889 -74.0856 North 125 144 6,100 -100 Descending Boston Center
Fri 06:17:32 PM 43.6244 -74.0806 North 125 144 6,000 -50 Descending Boston Center
Fri 06:18:32 PM 43.6600 -74.0703 12° North 125 144 6,000 -50 Level Boston Center
Fri 06:19:32 PM 43.6914 -74.0625 10° North 125 144 5,900  Descending Boston Center
Fri 06:20:32 PM 43.7269 -74.0547 North 125 144 6,000 100 Climbing Boston Center
Fri 06:21:32 PM 43.7625 -74.0469 North 125 144 6,100 100 Climbing Boston Center
Fri 06:22:32 PM 43.7897 -74.0392 12° North 125 144 6,200 50 Climbing Boston Center
Fri 06:23:32 PM 43.8272 -74.0344 North 125 144 6,200 -1,350 Level Boston Center
Fri 06:24:32 PM 43.8628 -74.0294 North 125 144 3,500 -1,350 Descending Boston Center
Fri 06:25:32 PM 43.9003 -74.0219 North 125 144 3,500  Level Boston Center

Login

Don't have an account? Register now (free) for customized features, flight alerts, and more!